createdAt,value
2019-03-22T00:00:12.885Z,53.40
2019-03-22T00:02:45.111Z,52.50
2019-03-22T00:05:17.679Z,52.90
2019-03-22T00:07:49.640Z,53.00
2019-03-22T00:10:22.132Z,52.90
2019-03-22T00:12:54.204Z,52.20
2019-03-22T00:15:26.316Z,52.10
2019-03-22T00:17:58.579Z,52.10
2019-03-22T00:20:30.601Z,52.00
2019-03-22T00:23:02.958Z,52.40
2019-03-22T00:25:35.643Z,52.40
2019-03-22T00:28:10.399Z,52.50
2019-03-22T00:31:49.692Z,51.70
2019-03-22T00:34:21.661Z,51.70
2019-03-22T00:36:54.130Z,51.30
2019-03-22T00:39:26.219Z,51.40
2019-03-22T00:41:58.386Z,51.20
2019-03-22T00:44:30.549Z,51.00
2019-03-22T00:47:02.702Z,50.70
2019-03-22T00:49:35.382Z,50.80
2019-03-22T00:52:07.645Z,50.70
2019-03-22T00:54:39.690Z,50.50
2019-03-22T00:57:11.556Z,50.60
2019-03-22T00:59:43.766Z,50.00
2019-03-22T01:02:15.885Z,49.90
2019-03-22T01:04:48.910Z,49.90
2019-03-22T01:07:21.173Z,49.20
2019-03-22T01:09:53.021Z,49.10
2019-03-22T01:12:25.708Z,48.60
2019-03-22T01:14:57.662Z,48.60
2019-03-22T01:17:29.627Z,47.80
2019-03-22T01:20:01.652Z,47.70
2019-03-22T01:22:33.971Z,48.80
2019-03-22T01:25:13.093Z,47.90
2019-03-22T01:27:45.778Z,48.30
2019-03-22T01:30:19.634Z,48.20
2019-03-22T01:32:52.726Z,48.40
2019-03-22T01:35:24.667Z,48.10
2019-03-22T01:37:57.431Z,48.40
2019-03-22T01:40:32.900Z,48.30
2019-03-22T01:43:05.505Z,47.70
2019-03-22T01:45:37.720Z,47.20
2019-03-22T01:48:09.974Z,47.00
2019-03-22T01:51:04.045Z,47.10
2019-03-22T01:53:36.300Z,47.00
2019-03-22T01:56:09.278Z,46.50
2019-03-22T01:58:41.102Z,46.70
2019-03-22T02:01:13.040Z,46.90
2019-03-22T02:03:46.514Z,46.70
2019-03-22T02:06:18.656Z,47.00
2019-03-22T02:08:51.252Z,47.00
2019-03-22T02:11:23.110Z,45.60
2019-03-22T02:13:55.353Z,45.80
2019-03-22T02:16:30.506Z,45.60
2019-03-22T02:19:22.058Z,45.20
2019-03-22T02:21:54.267Z,45.40
2019-03-22T02:24:26.795Z,45.30
2019-03-22T02:26:59.159Z,45.40
2019-03-22T02:29:32.564Z,45.10
2019-03-22T02:32:05.105Z,44.40
2019-03-22T02:34:37.073Z,43.90
2019-03-22T02:37:09.401Z,43.50
2019-03-22T02:39:41.765Z,43.60
2019-03-22T02:42:14.077Z,43.10
2019-03-22T02:44:45.974Z,42.70
2019-03-22T02:47:22.353Z,42.40
2019-03-22T02:49:54.707Z,42.90
2019-03-22T02:52:28.885Z,42.30
2019-03-22T02:55:00.754Z,42.30
2019-03-22T02:57:33.285Z,42.40
2019-03-22T03:00:06.405Z,41.40
2019-03-22T03:02:38.759Z,42.90
2019-03-22T03:05:12.292Z,41.60
2019-03-22T03:07:44.592Z,42.10
2019-03-22T03:10:18.799Z,41.30
2019-03-22T03:12:51.528Z,41.70
2019-03-22T03:15:23.977Z,41.10
2019-03-22T03:17:55.945Z,40.70
2019-03-22T03:20:29.074Z,41.10
2019-03-22T03:23:05.314Z,41.30
2019-03-22T03:25:37.418Z,41.10
2019-03-22T03:28:36.532Z,40.40
2019-03-22T03:31:02.761Z,40.20
2019-03-22T03:33:35.619Z,39.80
2019-03-22T03:36:08.243Z,39.60
2019-03-22T03:38:40.992Z,39.50
2019-03-22T03:41:13.220Z,38.40
2019-03-22T03:43:45.226Z,38.00
2019-03-22T03:46:17.694Z,38.00
2019-03-22T03:48:51.231Z,38.20
2019-03-22T03:51:23.810Z,37.10
2019-03-22T03:53:56.573Z,37.20
2019-03-22T03:56:29.975Z,38.00
2019-03-22T03:59:05.480Z,37.60
2019-03-22T04:01:38.833Z,37.00
2019-03-22T04:04:11.075Z,37.60
2019-03-22T04:06:46.616Z,37.30
2019-03-22T04:09:18.782Z,37.70
2019-03-22T04:11:50.697Z,36.80
2019-03-22T04:14:23.167Z,36.40
2019-03-22T04:16:55.223Z,36.10
2019-03-22T04:19:26.967Z,35.30
2019-03-22T04:22:18.280Z,35.20
2019-03-22T04:24:50.773Z,34.30
2019-03-22T04:27:22.821Z,35.50
2019-03-22T04:29:54.887Z,34.90
2019-03-22T04:32:26.888Z,34.90
2019-03-22T04:34:59.020Z,34.70
2019-03-22T04:37:31.242Z,35.20
2019-03-22T04:40:03.589Z,35.00
2019-03-22T04:42:35.582Z,33.90
2019-03-22T04:45:09.420Z,33.70
2019-03-22T04:47:42.206Z,31.80
2019-03-22T04:50:15.596Z,31.60
2019-03-22T04:52:48.051Z,31.50
2019-03-22T04:55:23.075Z,30.50
2019-03-22T04:57:59.616Z,30.10
2019-03-22T05:00:32.245Z,30.70
2019-03-22T05:03:14.808Z,30.90
2019-03-22T05:05:50.011Z,31.00
2019-03-22T05:08:24.236Z,31.20
2019-03-22T05:11:00.440Z,30.00
2019-03-22T05:13:35.175Z,30.00
2019-03-22T05:16:10.912Z,29.90
2019-03-22T05:18:46.250Z,29.70
2019-03-22T05:21:20.850Z,29.60
2019-03-22T05:23:56.475Z,30.00
2019-03-22T05:26:33.759Z,29.80
2019-03-22T05:29:30.907Z,29.90
2019-03-22T05:32:03.938Z,29.80
2019-03-22T05:34:35.768Z,29.90
2019-03-22T05:37:08.376Z,29.70
2019-03-22T05:39:41.011Z,29.50
2019-03-22T05:42:13.175Z,29.50
2019-03-22T05:44:45.436Z,29.40
2019-03-22T05:47:17.618Z,29.80
2019-03-22T05:49:53.501Z,29.90
2019-03-22T05:52:44.773Z,29.70
2019-03-22T05:55:16.572Z,28.50
2019-03-22T05:57:49.382Z,28.70
2019-03-22T06:00:21.847Z,29.40
2019-03-22T06:02:54.197Z,28.80
2019-03-22T06:05:27.593Z,28.90
2019-03-22T06:08:18.943Z,28.20
2019-03-22T06:11:10.486Z,28.30
2019-03-22T06:13:44.458Z,28.90
2019-03-22T06:16:37.246Z,29.20
2019-03-22T06:19:09.624Z,28.60
2019-03-22T06:21:42.328Z,29.00
2019-03-22T06:24:14.820Z,28.90
2019-03-22T06:26:47.482Z,28.90
2019-03-22T06:29:20.142Z,28.70
2019-03-22T06:31:53.094Z,28.70
2019-03-22T06:34:25.337Z,28.70
2019-03-22T06:37:21.373Z,28.50
2019-03-22T06:39:54.437Z,28.70
2019-03-22T06:42:46.634Z,28.90
2019-03-22T06:45:22.401Z,28.30
2019-03-22T06:47:54.777Z,28.40
2019-03-22T06:50:26.881Z,28.10
2019-03-22T06:52:59.072Z,28.30
2019-03-22T06:55:31.498Z,28.90
2019-03-22T06:58:05.102Z,28.70
2019-03-22T07:00:37.390Z,29.20
2019-03-22T07:03:12.173Z,28.90
2019-03-22T07:05:44.536Z,28.70
2019-03-22T07:08:36.752Z,28.90
2019-03-22T07:11:09.044Z,29.00
2019-03-22T07:13:41.120Z,28.80
2019-03-22T07:16:13.442Z,28.90
2019-03-22T07:18:45.606Z,29.10
2019-03-22T07:21:17.650Z,29.30
2019-03-22T07:23:49.786Z,29.60
2019-03-22T07:26:22.154Z,28.50
2019-03-22T07:28:54.410Z,28.60
2019-03-22T07:31:26.488Z,28.70
2019-03-22T07:33:58.598Z,29.20
2019-03-22T07:36:31.494Z,29.10
2019-03-22T07:39:03.638Z,29.20
2019-03-22T07:41:36.063Z,29.20
2019-03-22T07:44:08.304Z,29.70
2019-03-22T07:46:40.843Z,29.50
2019-03-22T07:49:13.083Z,29.10
2019-03-22T07:51:45.202Z,28.90
2019-03-22T07:54:26.822Z,29.40
2019-03-22T07:56:58.825Z,29.50
2019-03-22T07:59:32.908Z,28.70
2019-03-22T08:02:05.118Z,28.90
2019-03-22T08:04:39.587Z,29.30
2019-03-22T08:07:11.665Z,29.30
2019-03-22T08:09:43.839Z,30.30
2019-03-22T08:12:16.343Z,29.80
2019-03-22T08:14:48.558Z,29.90
2019-03-22T08:17:20.541Z,30.00
2019-03-22T08:19:52.484Z,29.50
2019-03-22T08:22:24.762Z,30.30
2019-03-22T08:24:56.638Z,29.60
2019-03-22T08:27:28.863Z,29.70
2019-03-22T08:30:00.768Z,29.90
2019-03-22T08:32:33.008Z,30.70
2019-03-22T08:35:25.156Z,30.00
2019-03-22T08:37:57.332Z,29.20
2019-03-22T08:40:48.780Z,29.50
2019-03-22T08:43:20.934Z,29.20
2019-03-22T08:45:56.848Z,29.30
2019-03-22T08:48:29.114Z,29.50
2019-03-22T08:51:02.464Z,29.70
2019-03-22T08:53:34.780Z,29.40
2019-03-22T08:56:08.687Z,29.30
2019-03-22T08:58:44.027Z,29.50
2019-03-22T09:01:17.620Z,29.70
2019-03-22T09:03:49.638Z,29.80
2019-03-22T09:06:21.684Z,29.90
2019-03-22T09:08:56.355Z,29.90
2019-03-22T09:11:28.703Z,30.00
2019-03-22T09:14:00.682Z,30.00
2019-03-22T09:16:33.025Z,29.80
2019-03-22T09:19:05.247Z,29.80
2019-03-22T09:21:37.576Z,29.80
2019-03-22T09:24:09.828Z,29.60
2019-03-22T09:26:47.616Z,29.90
2019-03-22T09:29:16.141Z,29.90
2019-03-22T09:31:48.455Z,30.10
2019-03-22T09:34:33.080Z,30.40
2019-03-22T09:36:57.539Z,29.90
2019-03-22T09:39:30.279Z,29.80
2019-03-22T09:42:03.496Z,29.60
2019-03-22T09:44:43.166Z,30.00
2019-03-22T09:47:09.634Z,29.60
2019-03-22T09:49:42.095Z,29.50
2019-03-22T09:52:14.298Z,29.50
2019-03-22T09:54:46.876Z,29.90
2019-03-22T09:57:19.356Z,29.70
2019-03-22T09:59:51.587Z,30.00
2019-03-22T10:02:24.952Z,30.00
2019-03-22T10:04:56.723Z,29.70
2019-03-22T10:07:28.815Z,30.00
2019-03-22T10:10:02.907Z,29.90
2019-03-22T10:12:38.184Z,30.50
2019-03-22T10:15:19.885Z,30.10
2019-03-22T10:17:52.107Z,30.10
2019-03-22T10:20:23.978Z,30.20
2019-03-22T10:22:56.418Z,29.80
2019-03-22T10:25:28.784Z,30.30
2019-03-22T10:28:01.811Z,29.50
2019-03-22T10:30:33.933Z,29.80
2019-03-22T10:33:06.635Z,30.10
2019-03-22T10:35:38.801Z,30.20
2019-03-22T10:38:16.272Z,29.90
2019-03-22T10:40:44.845Z,29.80
2019-03-22T10:43:27.285Z,30.00
2019-03-22T10:46:00.023Z,29.90
2019-03-22T10:48:33.226Z,30.10
2019-03-22T10:51:07.167Z,30.10
2019-03-22T10:53:39.577Z,30.20
2019-03-22T10:56:11.838Z,30.20
2019-03-22T10:58:44.152Z,30.40
2019-03-22T11:01:16.459Z,30.70
2019-03-22T11:03:50.109Z,32.20
2019-03-22T11:06:26.284Z,31.10
2019-03-22T11:08:56.015Z,31.50
2019-03-22T11:11:30.755Z,31.10
2019-03-22T11:14:03.175Z,32.00
2019-03-22T11:16:35.170Z,31.30
2019-03-22T11:19:07.106Z,31.70
2019-03-22T11:21:39.324Z,32.50
2019-03-22T11:24:11.455Z,31.60
2019-03-22T11:26:43.685Z,32.20
2019-03-22T11:29:16.418Z,31.90
2019-03-22T11:31:48.522Z,32.00
2019-03-22T11:34:20.662Z,32.10
2019-03-22T11:36:53.932Z,32.20
2019-03-22T11:39:25.854Z,32.20
2019-03-22T11:41:59.237Z,32.40
2019-03-22T11:44:31.649Z,32.60
2019-03-22T11:47:24.267Z,32.60
2019-03-22T11:49:56.403Z,32.90
2019-03-22T11:52:28.478Z,33.00
2019-03-22T11:55:00.970Z,32.90
2019-03-22T11:57:33.059Z,32.90
2019-03-22T12:00:06.527Z,33.10
2019-03-22T12:02:38.716Z,33.20
2019-03-22T12:05:12.672Z,33.60
2019-03-22T12:07:44.817Z,33.60
2019-03-22T12:10:20.787Z,33.50
2019-03-22T12:12:52.969Z,33.80
2019-03-22T12:15:26.908Z,33.80
2019-03-22T12:17:58.875Z,33.60
2019-03-22T12:20:31.583Z,33.70
2019-03-22T12:23:03.946Z,33.70
2019-03-22T12:25:55.229Z,33.40
2019-03-22T12:28:27.966Z,33.60
2019-03-22T12:31:00.108Z,33.70
2019-03-22T12:33:36.127Z,33.70
2019-03-22T12:36:08.447Z,34.70
2019-03-22T12:38:41.329Z,34.70
2019-03-22T12:41:13.302Z,34.50
2019-03-22T12:43:50.194Z,33.90
2019-03-22T12:46:22.652Z,34.10
2019-03-22T12:48:54.868Z,33.40
2019-03-22T12:51:26.882Z,34.30
2019-03-22T12:53:59.707Z,34.30
2019-03-22T12:56:31.776Z,34.50
2019-03-22T12:59:04.335Z,34.90
2019-03-22T13:01:36.694Z,35.30
2019-03-22T13:04:09.296Z,35.60
2019-03-22T13:06:42.194Z,35.00
2019-03-22T13:09:14.029Z,35.80
2019-03-22T13:11:46.613Z,34.90
2019-03-22T13:14:18.865Z,35.50
2019-03-22T13:16:50.888Z,35.20
2019-03-22T13:19:23.324Z,35.90
2019-03-22T13:21:55.523Z,35.30
2019-03-22T13:24:27.447Z,36.00
2019-03-22T13:26:59.841Z,36.30
2019-03-22T13:29:32.426Z,35.60
2019-03-22T13:32:04.678Z,35.80
2019-03-22T13:34:36.897Z,35.90
2019-03-22T13:37:09.188Z,36.80
2019-03-22T13:39:41.276Z,36.00
2019-03-22T13:42:13.523Z,36.00
2019-03-22T13:44:46.110Z,36.80
2019-03-22T13:47:18.355Z,36.40
2019-03-22T13:49:50.581Z,36.40
2019-03-22T13:52:23.266Z,37.00
2019-03-22T13:54:55.174Z,38.00
2019-03-22T13:57:27.317Z,37.00
2019-03-22T13:59:59.280Z,37.70
2019-03-22T14:02:31.272Z,36.50
2019-03-22T14:05:06.235Z,36.60
2019-03-22T14:07:39.462Z,36.50
2019-03-22T14:10:15.104Z,36.40
2019-03-22T14:12:47.224Z,36.70
2019-03-22T14:15:20.227Z,37.10
2019-03-22T14:17:52.239Z,36.80
2019-03-22T14:20:24.627Z,37.10
2019-03-22T14:22:56.729Z,37.30
2019-03-22T14:25:28.890Z,37.90
2019-03-22T14:28:01.156Z,36.80
2019-03-22T14:30:33.084Z,37.20
2019-03-22T14:33:12.905Z,37.30
2019-03-22T14:35:39.275Z,37.50
2019-03-22T14:38:12.316Z,37.40
2019-03-22T14:40:44.349Z,37.30
2019-03-22T14:43:16.870Z,37.30
2019-03-22T14:45:49.058Z,37.50
2019-03-22T14:48:21.009Z,37.60
2019-03-22T14:50:56.754Z,38.00
2019-03-22T14:53:28.816Z,37.90
2019-03-22T14:56:01.530Z,38.00
2019-03-22T14:58:33.586Z,37.40
2019-03-22T15:01:05.499Z,37.80
2019-03-22T15:03:38.266Z,38.30
2019-03-22T15:06:10.622Z,38.40
2019-03-22T15:08:44.347Z,39.30
2019-03-22T15:11:16.572Z,37.70
2019-03-22T15:13:50.513Z,38.40
2019-03-22T15:16:24.362Z,37.70
2019-03-22T15:18:58.230Z,38.20
2019-03-22T15:21:31.616Z,38.40
2019-03-22T15:24:08.904Z,37.40
2019-03-22T15:26:42.416Z,37.70
2019-03-22T15:29:16.222Z,38.80
2019-03-22T15:31:49.715Z,38.70
2019-03-22T15:34:26.465Z,37.80
2019-03-22T15:37:00.865Z,37.90
2019-03-22T15:39:34.949Z,37.90
2019-03-22T15:42:07.202Z,37.80
2019-03-22T15:44:39.677Z,38.00
2019-03-22T15:47:11.607Z,37.90
2019-03-22T15:49:43.524Z,37.90
2019-03-22T15:52:15.706Z,37.90
2019-03-22T15:54:48.386Z,37.90
2019-03-22T15:57:20.460Z,37.80
2019-03-22T15:59:52.721Z,38.50
2019-03-22T16:02:24.756Z,38.10
2019-03-22T16:04:56.805Z,38.10
2019-03-22T16:07:29.047Z,38.70
2019-03-22T16:10:02.721Z,39.00
2019-03-22T16:12:35.076Z,39.00
2019-03-22T16:15:10.668Z,39.00
2019-03-22T16:17:43.383Z,39.30
2019-03-22T16:20:35.009Z,39.50
2019-03-22T16:23:07.821Z,39.70
2019-03-22T16:25:40.303Z,39.90
2019-03-22T16:28:12.443Z,40.20
2019-03-22T16:30:44.920Z,41.10
2019-03-22T16:33:17.223Z,40.70
2019-03-22T16:35:50.174Z,41.40
2019-03-22T16:38:22.123Z,41.30
2019-03-22T16:40:55.060Z,42.50
2019-03-22T16:43:27.224Z,41.70
2019-03-22T16:45:59.351Z,41.20
2019-03-22T16:48:31.752Z,41.70
2019-03-22T16:51:04.142Z,41.50
2019-03-22T16:53:36.245Z,42.50
2019-03-22T16:56:08.589Z,42.60
2019-03-22T16:58:40.752Z,42.20
2019-03-22T17:01:13.002Z,43.00
2019-03-22T17:03:45.387Z,42.40
2019-03-22T17:06:17.378Z,42.10
2019-03-22T17:08:49.657Z,42.00
2019-03-22T17:11:22.840Z,42.20
2019-03-22T17:13:55.103Z,42.40
2019-03-22T17:16:27.319Z,43.40
2019-03-22T17:19:00.369Z,42.00
2019-03-22T17:21:33.425Z,41.80
2019-03-22T17:24:05.460Z,42.40
2019-03-22T17:26:37.739Z,41.80
2019-03-22T17:29:09.775Z,42.00
2019-03-22T17:31:41.933Z,42.00
2019-03-22T17:34:14.693Z,41.60
2019-03-22T17:36:46.773Z,41.60
2019-03-22T17:39:18.843Z,41.60
2019-03-22T17:41:51.119Z,42.10
2019-03-22T17:44:23.241Z,42.40
2019-03-22T17:46:55.400Z,42.60
2019-03-22T17:49:27.757Z,42.80
2019-03-22T17:51:59.591Z,44.10
2019-03-22T17:54:31.967Z,43.70
2019-03-22T17:57:03.788Z,43.50
2019-03-22T17:59:35.885Z,43.90
2019-03-22T18:02:08.689Z,43.40
2019-03-22T18:04:40.714Z,43.80
2019-03-22T18:07:12.852Z,43.30
2019-03-22T18:09:44.888Z,43.40
2019-03-22T18:12:17.751Z,43.90
2019-03-22T18:14:49.881Z,43.70
2019-03-22T18:17:22.461Z,43.50
2019-03-22T18:19:54.594Z,43.10
2019-03-22T18:22:26.826Z,43.80
2019-03-22T18:24:59.301Z,44.20
2019-03-22T18:27:31.403Z,43.90
2019-03-22T18:30:03.630Z,44.60
2019-03-22T18:32:36.387Z,45.20
2019-03-22T18:35:09.484Z,45.30
2019-03-22T18:37:42.001Z,45.10
2019-03-22T18:40:16.463Z,44.20
2019-03-22T18:42:48.508Z,44.00
2019-03-22T18:45:20.459Z,44.70
2019-03-22T18:47:52.731Z,44.00
2019-03-22T18:50:25.097Z,44.50
2019-03-22T18:52:57.598Z,45.00
2019-03-22T18:55:29.623Z,44.20
2019-03-22T18:58:02.242Z,44.40
2019-03-22T19:00:35.147Z,44.40
2019-03-22T19:03:07.179Z,45.00
2019-03-22T19:05:39.242Z,45.30
2019-03-22T19:08:12.517Z,45.40
2019-03-22T19:10:45.882Z,45.50
2019-03-22T19:13:18.832Z,45.30
2019-03-22T19:15:51.359Z,45.00
2019-03-22T19:18:23.455Z,45.20
2019-03-22T19:20:55.419Z,45.60
2019-03-22T19:23:27.814Z,45.90
2019-03-22T19:26:00.405Z,46.10
2019-03-22T19:28:32.624Z,46.80
2019-03-22T19:31:04.889Z,46.30
2019-03-22T19:33:37.327Z,46.70
2019-03-22T19:36:09.442Z,47.40
2019-03-22T19:38:41.945Z,47.10
2019-03-22T19:41:13.984Z,47.90
2019-03-22T19:43:45.847Z,47.20
2019-03-22T19:46:18.003Z,47.00
2019-03-22T19:48:50.018Z,47.20
2019-03-22T19:51:22.051Z,47.20
2019-03-22T19:53:55.170Z,48.00
2019-03-22T19:56:27.426Z,47.70
2019-03-22T19:58:59.921Z,47.70
2019-03-22T20:01:32.091Z,47.80
2019-03-22T20:04:04.137Z,48.00
2019-03-22T20:06:36.477Z,47.70
2019-03-22T20:09:11.740Z,48.00
2019-03-22T20:12:03.399Z,48.00
2019-03-22T20:14:49.181Z,47.60
2019-03-22T20:17:21.249Z,47.80
2019-03-22T20:19:53.437Z,47.20
2019-03-22T20:22:25.387Z,47.50
2019-03-22T20:24:58.291Z,47.20
2019-03-22T20:27:30.332Z,47.70
2019-03-22T20:30:02.439Z,47.60
2019-03-22T20:32:34.591Z,48.20
2019-03-22T20:35:16.420Z,47.60
2019-03-22T20:37:43.102Z,47.30
2019-03-22T20:40:19.481Z,46.90
2019-03-22T20:42:51.605Z,46.80
2019-03-22T20:45:24.573Z,47.40
2019-03-22T20:47:57.387Z,47.30
2019-03-22T20:50:35.753Z,47.30
2019-03-22T20:53:03.552Z,47.50
2019-03-22T20:55:36.608Z,47.10
2019-03-22T20:58:08.456Z,46.60
2019-03-22T21:00:40.981Z,46.80
2019-03-22T21:03:13.124Z,46.50
2019-03-22T21:05:45.685Z,47.40
2019-03-22T21:08:18.281Z,47.30
2019-03-22T21:10:50.986Z,47.10
2019-03-22T21:13:23.020Z,47.10
2019-03-22T21:15:56.241Z,46.80
2019-03-22T21:18:28.381Z,48.30
2019-03-22T21:21:00.403Z,48.40
2019-03-22T21:23:36.626Z,48.80
2019-03-22T21:26:06.733Z,47.70
2019-03-22T21:28:39.525Z,47.30
2019-03-22T21:31:11.603Z,47.60
2019-03-22T21:33:43.741Z,47.10
2019-03-22T21:36:16.321Z,47.30
2019-03-22T21:39:09.347Z,47.40
2019-03-22T21:41:41.994Z,47.40
2019-03-22T21:44:14.250Z,47.90
2019-03-22T21:46:46.348Z,47.80
2019-03-22T21:49:18.713Z,48.10
2019-03-22T21:51:51.229Z,48.20
2019-03-22T21:54:23.084Z,48.00
2019-03-22T21:56:55.214Z,48.50
2019-03-22T21:59:27.220Z,48.90
2019-03-22T22:01:59.311Z,49.30
2019-03-22T22:04:31.337Z,48.70
2019-03-22T22:07:03.291Z,49.10
2019-03-22T22:09:35.200Z,49.10
2019-03-22T22:12:07.585Z,48.90
2019-03-22T22:14:40.989Z,48.90
2019-03-22T22:17:13.909Z,49.10
2019-03-22T22:19:47.262Z,49.10
2019-03-22T22:22:19.667Z,49.30
2019-03-22T22:24:51.993Z,49.80
2019-03-22T22:27:24.388Z,49.80
2019-03-22T22:29:57.202Z,50.00
2019-03-22T22:32:29.298Z,50.20
2019-03-22T22:35:01.080Z,50.70
2019-03-22T22:37:33.216Z,50.40
2019-03-22T22:40:07.192Z,50.40
2019-03-22T22:42:39.578Z,50.00
2019-03-22T22:45:12.969Z,50.50
2019-03-22T22:48:04.776Z,50.40
2019-03-22T22:50:36.935Z,50.40
2019-03-22T22:53:08.831Z,50.80
2019-03-22T22:55:41.990Z,50.80
2019-03-22T22:58:14.348Z,51.50
2019-03-22T23:00:48.321Z,51.00
2019-03-22T23:03:20.916Z,51.30
2019-03-22T23:05:53.837Z,51.50
2019-03-22T23:08:26.026Z,52.60
2019-03-22T23:10:57.963Z,52.50
2019-03-22T23:13:30.585Z,51.80
2019-03-22T23:16:02.828Z,51.80
2019-03-22T23:18:35.804Z,52.10
2019-03-22T23:21:07.954Z,52.00
2019-03-22T23:23:40.186Z,52.90
2019-03-22T23:26:14.974Z,52.30
2019-03-22T23:28:47.015Z,52.70
2019-03-22T23:31:19.233Z,52.20
2019-03-22T23:33:51.375Z,52.50
2019-03-22T23:36:24.024Z,52.50
2019-03-22T23:38:55.911Z,52.40
2019-03-22T23:41:28.035Z,52.10
2019-03-22T23:44:00.375Z,52.70
2019-03-22T23:46:32.597Z,52.60
2019-03-22T23:49:05.445Z,51.90
2019-03-22T23:51:37.662Z,51.90
2019-03-22T23:54:09.997Z,52.50
2019-03-22T23:56:42.375Z,52.40
2019-03-22T23:59:14.777Z,52.60
